| time (UTC) | temp F | wind direction | speed knots | gust knots | rain 1hr in | rain 24hr in | rain mn in | humidity % | barometer mb |
| 20260906105219 | 70 | 306 | 0.0 | 0.0 | 0.00 | 0.24 | 0.24 | 99 | 1013.9 |
| 20260906104719 | 70 | 306 | 0.0 | 0.0 | 0.00 | 0.24 | 0.24 | 99 | 1013.9 |
| 20260906104218 | 70 | 306 | 0.0 | 0.0 | 0.00 | 0.24 | 0.24 | 99 | 1013.9 |
| 20260906103716 | 70 | 306 | 0.0 | 0.0 | 0.00 | 0.24 | 0.24 | 99 | 1013.8 |
| 20260906103211 | 70 | 306 | 0.0 | 0.0 | 0.00 | 0.24 | 0.24 | 99 | 1013.7 |
| 20260906102706 | 70 | 306 | 0.0 | 0.0 | 0.00 | 0.24 | 0.24 | 99 | 1013.6 |
| 20260906102205 | 70 | 306 | 0.0 | 0.0 | 0.00 | 0.24 | 0.24 | 99 | 1013.8 |
| 20260906101700 | 70 | 306 | 0.0 | 0.0 | 0.00 | 0.24 | 0.24 | 99 | 1013.7 |
| 20260906101155 | 70 | 306 | 0.0 | 0.0 | 0.00 | 0.24 | 0.24 | 99 | 1013.8 |
| 20260906100651 | 69 | 306 | 0.0 | 0.0 | 0.00 | 0.24 | 0.24 | 99 | 1013.9 |
| 20260906100151 | 69 | 306 | 0.0 | 0.0 | 0.00 | 0.24 | 0.24 | 99 | 1013.5 |
| 20260906095646 | 70 | 306 | 0.0 | 0.0 | 0.00 | 0.24 | 0.24 | 99 | 1013.6 |
| 20260906095141 | 70 | 306 | 0.0 | 0.0 | 0.00 | 0.24 | 0.24 | 99 | 1013.7 |
| 20260906094640 | 70 | 306 | 0.0 | 0.0 | 0.00 | 0.24 | 0.24 | 99 | 1013.4 |
| 20260906094136 | 70 | 306 | 0.0 | 0.0 | 0.00 | 0.24 | 0.24 | 99 | 1013.4 |
| 20260906093632 | 70 | 306 | 0.0 | 0.0 | 0.00 | 0.24 | 0.24 | 99 | 1013.3 |
| 20260906093132 | 70 | 307 | 0.0 | 0.0 | 0.00 | 0.24 | 0.24 | 99 | 1013.4 |
| 20260906092627 | 70 | 307 | 0.0 | 0.0 | 0.00 | 0.24 | 0.24 | 99 | 1013.4 |
| 20260906092122 | 70 | 307 | 0.0 | 0.0 | 0.00 | 0.24 | 0.24 | 99 | 1013.4 |
| 20260906091618 | 70 | 307 | 0.0 | 0.0 | 0.00 | 0.24 | 0.24 | 99 | 1013.3 |
| 20260906091114 | 70 | 307 | 0.0 | 0.0 | 0.00 | 0.24 | 0.24 | 99 | 1013.4 |
| 20260906090615 | 70 | 307 | 0.0 | 0.0 | 0.00 | 0.24 | 0.24 | 99 | 1013.4 |
| 20260906090114 | 70 | 307 | 0.0 | 0.0 | 0.00 | 0.24 | 0.24 | 99 | 1013.4 |
| 20260906085614 | 71 | 307 | 0.0 | 0.0 | 0.00 | 0.24 | 0.24 | 99 | 1013.5 |
| 20260906085108 | 71 | 307 | 0.0 | 0.0 | 0.00 | 0.24 | 0.24 | 99 | 1013.4 |
| 20260906084603 | 71 | 307 | 0.0 | 0.0 | 0.00 | 0.24 | 0.24 | 99 | 1013.4 |
| 20260906084101 | 71 | 307 | 0.0 | 0.0 | 0.00 | 0.24 | 0.24 | 99 | 1013.4 |
| 20260906083557 | 71 | 307 | 0.0 | 0.0 | 0.00 | 0.24 | 0.24 | 99 | 1013.8 |
| 20260906083057 | 71 | 307 | 0.0 | 0.0 | 0.00 | 0.24 | 0.24 | 99 | 1014.1 |
| 20260906082553 | 71 | 307 | 0.0 | 0.0 | 0.00 | 0.24 | 0.24 | 99 | 1014.0 |
| 20260906082048 | 71 | 307 | 0.0 | 0.0 | 0.00 | 0.24 | 0.24 | 99 | 1014.3 |
| 20260906081544 | 71 | 307 | 0.0 | 0.0 | 0.00 | 0.24 | 0.24 | 99 | 1013.9 |
| 20260906081039 | 71 | 307 | 0.0 | 0.0 | 0.00 | 0.24 | 0.24 | 99 | 1013.6 |
| 20260906080536 | 71 | 307 | 0.0 | 0.0 | 0.00 | 0.24 | 0.24 | 99 | 1013.8 |
| 20260906080031 | 72 | 307 | 0.0 | 0.0 | 0.00 | 0.24 | 0.24 | 99 | 1013.8 |
| 20260906075526 | 72 | 307 | 0.0 | 0.0 | 0.12 | 0.24 | 0.24 | 99 | 1013.9 |
| 20260906075020 | 72 | 307 | 0.0 | 0.0 | 0.12 | 0.24 | 0.24 | 99 | 1013.9 |
| 20260906074515 | 72 | 307 | 0.0 | 0.0 | 0.12 | 0.22 | 0.22 | 99 | 1014.1 |
| 20260906074013 | 72 | 307 | 0.0 | 0.0 | 0.24 | 0.22 | 0.22 | 99 | 1014.2 |
| 20260906073508 | 73 | 307 | 0.0 | 0.0 | 0.19 | 0.20 | 0.20 | 99 | 1014.8 |
| 20260906073005 | 74 | 307 | 0.0 | 0.0 | 0.17 | 0.19 | 0.19 | 99 | 1014.7 |
| 20260906072459 | 74 | 307 | 0.0 | 0.0 | 0.35 | 0.17 | 0.17 | 99 | 1014.7 |
| 20260906071955 | 74 | 307 | 0.0 | 0.0 | 0.54 | 0.15 | 0.15 | 99 | 1015.0 |
| 20260906071451 | 74 | 307 | 0.0 | 0.0 | 0.59 | 0.11 | 0.11 | 99 | 1014.9 |
| 20260906070946 | 74 | 307 | 0.0 | 0.0 | 0.42 | 0.07 | 0.07 | 99 | 1014.4 |
| 20260906070443 | 74 | 307 | 0.0 | 0.0 | 0.07 | 0.01 | 0.01 | 99 | 1014.6 |
| 20260906065938 | 74 | 307 | 0.0 | 0.0 | 0.00 | 0.00 | 0.00 | 99 | 1014.5 |
| 20260906065438 | 74 | 307 | 0.0 | 0.0 | 0.00 | 0.00 | 0.00 | 99 | 1014.3 |
| 20260906064933 | 73 | 307 | 0.0 | 0.0 | 0.00 | 0.00 | 0.00 | 99 | 1013.9 |
| 20260906064429 | 73 | 307 | 0.0 | 0.0 | 0.00 | 0.00 | 0.00 | 99 | 1014.0 |
| 20260906063924 | 73 | 307 | 0.0 | 0.0 | 0.00 | 0.00 | 0.00 | 99 | 1013.5 |
| 20260906063419 | 73 | 307 | 0.0 | 0.0 | 0.00 | 0.00 | 0.00 | 99 | 1013.7 |
| 20260906062914 | 73 | 307 | 0.0 | 0.0 | 0.00 | 0.00 | 0.00 | 99 | 1013.5 |
| 20260906062409 | 73 | 307 | 0.0 | 0.0 | 0.00 | 0.00 | 0.00 | 99 | 1013.7 |
| 20260906061904 | 73 | 307 | 0.0 | 0.0 | 0.00 | 0.00 | 0.00 | 99 | 1013.7 |
| 20260906061400 | 73 | 307 | 0.0 | 0.0 | 0.00 | 0.00 | 0.00 | 99 | 1014.0 |
| 20260906060854 | 73 | 307 | 0.0 | 0.0 | 0.00 | 0.00 | 0.00 | 99 | 1013.9 |
| 20260906060352 | 73 | 307 | 0.0 | 0.0 | 0.00 | 0.00 | 0.00 | 99 | 1013.8 |
| 20260906055848 | 73 | 307 | 0.0 | 0.0 | 0.00 | 0.00 | 0.00 | 99 | 1014.0 |
| 20260906055343 | 74 | 307 | 0.0 | 0.0 | 0.00 | 0.00 | 0.00 | 99 | 1014.1 |
| 20260906054838 | 74 | 307 | 0.0 | 0.0 | 0.00 | 0.00 | 0.00 | 99 | 1013.8 |
| 20260906054333 | 74 | 307 | 0.0 | 0.0 | 0.00 | 0.00 | 0.00 | 99 | 1014.0 |
| 20260906053830 | 74 | 307 | 0.0 | 0.0 | 0.00 | 0.00 | 0.00 | 99 | 1013.8 |
| 20260906053325 | 74 | 307 | 0.0 | 0.0 | 0.00 | 0.00 | 0.00 | 99 | 1014.3 |
| 20260906052820 | 74 | 307 | 0.0 | 0.0 | 0.00 | 0.00 | 0.00 | 99 | 1014.3 |
| 20260906052317 | 73 | 307 | 0.0 | 0.0 | 0.00 | 0.00 | 0.00 | 99 | 1014.3 |
| 20260906051814 | 73 | 307 | 0.0 | 0.0 | 0.00 | 0.00 | 0.00 | 99 | 1014.3 |
| 20260906051313 | 73 | 307 | 0.0 | 0.0 | 0.00 | 0.00 | 0.00 | 99 | 1014.2 |
| 20260906050808 | 73 | 307 | 0.0 | 0.0 | 0.00 | 0.00 | 0.00 | 99 | 1014.2 |
| 20260906050303 | 73 | 307 | 0.0 | 0.0 | 0.00 | 0.00 | 0.00 | 99 | 1014.3 |
| 20260906045802 | 73 | 307 | 0.0 | 0.0 | 0.00 | 0.00 | 0.00 | 99 | 1014.2 |
| 20260906045257 | 74 | 307 | 0.0 | 0.0 | 0.00 | 0.00 | 0.00 | 99 | 1014.4 |
| 20260906044753 | 74 | 307 | 0.0 | 0.0 | 0.00 | 0.00 | 0.00 | 99 | 1014.3 |
| 20260906044247 | 74 | 307 | 0.0 | 0.0 | 0.00 | 0.00 | 0.00 | 99 | 1014.5 |
| 20260906043744 | 74 | 307 | 0.0 | 0.0 | 0.00 | 0.00 | 0.00 | 99 | 1014.7 |
| 20260906043240 | 74 | 307 | 0.0 | 0.0 | 0.00 | 0.00 | 0.00 | 99 | 1014.6 |
| 20260906042739 | 74 | 307 | 0.0 | 0.0 | 0.00 | 0.00 | 0.00 | 99 | 1014.7 |
| 20260906042238 | 73 | 307 | 0.0 | 0.0 | 0.00 | 0.00 | 0.00 | 99 | 1014.6 |
| 20260906041734 | 73 | 307 | 0.0 | 0.0 | 0.00 | 0.00 | 0.00 | 99 | 1014.7 |
| 20260906041229 | 73 | 307 | 0.0 | 0.0 | 0.00 | 0.00 | 0.00 | 99 | 1014.6 |
| 20260906040724 | 73 | 307 | 0.0 | 0.0 | 0.00 | 0.00 | 0.00 | 99 | 1014.9 |
| 20260906040220 | 73 | 307 | 0.0 | 0.0 | 0.00 | 0.00 | 0.00 | 99 | 1014.7 |
| 20260906035715 | 73 | 307 | 0.0 | 0.0 | 0.00 | 0.68 | 0.68 | 99 | 1014.6 |
| 20260906035211 | 73 | 307 | 0.0 | 0.0 | 0.00 | 0.68 | 0.68 | 99 | 1014.5 |
| 20260906034710 | 73 | 307 | 0.0 | 0.0 | 0.00 | 0.68 | 0.68 | 99 | 1014.6 |
| 20260906034205 | 73 | 307 | 0.0 | 0.0 | 0.00 | 0.68 | 0.68 | 99 | 1015.0 |
| 20260906033701 | 74 | 307 | 0.0 | 0.0 | 0.00 | 0.68 | 0.68 | 99 | 1014.7 |
| 20260906033201 | 74 | 307 | 0.0 | 0.0 | 0.00 | 0.68 | 0.68 | 99 | 1014.7 |
| 20260906032657 | 74 | 307 | 0.0 | 0.0 | 0.00 | 0.68 | 0.68 | 99 | 1014.8 |
| 20260906032152 | 74 | 307 | 0.0 | 0.0 | 0.00 | 0.68 | 0.68 | 99 | 1014.9 |
| 20260906031647 | 74 | 307 | 0.0 | 0.0 | 0.00 | 0.68 | 0.68 | 99 | 1014.6 |
| 20260906031143 | 74 | 307 | 0.0 | 0.0 | 0.00 | 0.68 | 0.68 | 99 | 1014.7 |
| 20260906030642 | 74 | 307 | 0.0 | 0.0 | 0.00 | 0.68 | 0.68 | 99 | 1015.1 |
| 20260906030137 | 73 | 307 | 0.0 | 0.0 | 0.00 | 0.68 | 0.68 | 99 | 1014.8 |
| 20260906025637 | 73 | 307 | 0.0 | 0.0 | 0.00 | 0.68 | 0.68 | 99 | 1014.6 |
| 20260906025136 | 73 | 307 | 0.0 | 0.0 | 0.00 | 0.68 | 0.68 | 99 | 1014.4 |
| 20260906024631 | 73 | 307 | 0.0 | 0.0 | 0.00 | 0.68 | 0.68 | 99 | 1014.3 |
| 20260906024125 | 73 | 307 | 0.0 | 0.0 | 0.00 | 0.68 | 0.68 | 99 | 1014.3 |
| 20260906023621 | 73 | 307 | 0.0 | 0.0 | 0.00 | 0.68 | 0.68 | 99 | 1014.0 |
| 20260906023120 | 73 | 307 | 0.0 | 0.0 | 0.00 | 0.68 | 0.68 | 99 | 1014.3 |
| 20260906022616 | 74 | 307 | 0.0 | 0.0 | 0.00 | 0.68 | 0.68 | 99 | 1014.1 |
| 20260906022112 | 74 | 307 | 0.0 | 0.0 | 0.00 | 0.68 | 0.68 | 99 | 1014.1 |
| 20260906021608 | 74 | 307 | 0.0 | 0.0 | 0.00 | 0.68 | 0.68 | 99 | 1014.1 |
| 20260906021106 | 74 | 307 | 0.0 | 0.0 | 0.00 | 0.68 | 0.68 | 99 | 1013.9 |
| 20260906020605 | 74 | 307 | 0.0 | 0.0 | 0.00 | 0.68 | 0.68 | 99 | 1013.9 |
| 20260906020100 | 74 | 307 | 0.0 | 0.0 | 0.00 | 0.68 | 0.68 | 99 | 1014.0 |
| 20260906015554 | 74 | 307 | 0.0 | 0.0 | 0.00 | 0.68 | 0.68 | 99 | 1014.2 |
| 20260906015053 | 75 | 307 | 0.0 | 0.0 | 0.00 | 0.68 | 0.68 | 99 | 1014.0 |
| 20260906014548 | 75 | 307 | 0.0 | 0.0 | 0.00 | 0.68 | 0.68 | 99 | 1013.7 |
| 20260906014044 | 75 | 307 | 0.0 | 0.0 | 0.00 | 0.68 | 0.68 | 99 | 1013.6 |
| 20260906013539 | 75 | 307 | 0.0 | 0.0 | 0.00 | 0.68 | 0.68 | 99 | 1013.4 |
| 20260906013035 | 75 | 307 | 0.0 | 0.0 | 0.00 | 0.68 | 0.68 | 99 | 1013.5 |
| 20260906012530 | 75 | 307 | 0.0 | 0.0 | 0.00 | 0.68 | 0.68 | 99 | 1013.7 |
| 20260906012029 | 75 | 307 | 0.0 | 0.0 | 0.00 | 0.68 | 0.68 | 99 | 1013.9 |
| 20260906011526 | 74 | 307 | 0.0 | 0.0 | 0.00 | 0.68 | 0.68 | 99 | 1013.8 |
| 20260906011025 | 74 | 307 | 0.0 | 0.0 | 0.00 | 0.68 | 0.68 | 99 | 1013.9 |
| 20260906010520 | 74 | 307 | 0.0 | 0.0 | 0.00 | 0.68 | 0.68 | 99 | 1013.7 |
| 20260906010017 | 74 | 307 | 0.0 | 0.0 | 0.00 | 0.68 | 0.68 | 99 | 1013.7 |
| 20260906005516 | 74 | 307 | 0.0 | 0.0 | 0.00 | 0.68 | 0.68 | 99 | 1013.9 |
| 20260906005015 | 74 | 307 | 0.0 | 0.0 | 0.00 | 0.68 | 0.68 | 99 | 1013.8 |
| 20260906004515 | 74 | 307 | 0.0 | 0.0 | 0.00 | 0.68 | 0.68 | 99 | 1013.9 |
| 20260906004010 | 74 | 307 | 0.0 | 0.0 | 0.00 | 0.68 | 0.68 | 99 | 1013.8 |
| 20260906003505 | 74 | 307 | 0.0 | 0.0 | 0.00 | 0.68 | 0.68 | 99 | 1013.7 |
| 20260906003000 | 74 | 307 | 0.0 | 0.0 | 0.00 | 0.68 | 0.68 | 99 | 1013.7 |
| 20260906002455 | 74 | 307 | 0.0 | 0.0 | 0.00 | 0.68 | 0.68 | 99 | 1013.8 |
| 20260906001950 | 74 | 307 | 0.0 | 0.0 | 0.00 | 0.68 | 0.68 | 99 | 1014.0 |
| 20260906001446 | 74 | 307 | 0.0 | 0.0 | 0.00 | 0.68 | 0.68 | 99 | 1013.9 |
| 20260906000940 | 73 | 307 | 0.0 | 0.0 | 0.00 | 0.68 | 0.68 | 99 | 1013.9 |
| 20260906000435 | 73 | 307 | 0.0 | 0.0 | 0.00 | 0.68 | 0.68 | 99 | 1013.9 |
| 20260905235925 | 73 | 307 | 0.0 | 0.0 | 0.00 | 0.68 | 0.68 | 99 | 1013.9 |
| 20260905235424 | 73 | 307 | 0.0 | 0.0 | 0.00 | 0.68 | 0.68 | 99 | 1013.7 |
| 20260905234919 | 74 | 307 | 0.0 | 0.0 | 0.00 | 0.68 | 0.68 | 99 | 1013.9 |
| 20260905234414 | 74 | 307 | 0.0 | 0.0 | 0.00 | 0.68 | 0.68 | 99 | 1013.8 |
| 20260905233909 | 74 | 307 | 0.0 | 0.0 | 0.00 | 0.68 | 0.68 | 99 | 1013.8 |
| 20260905233405 | 76 | 307 | 0.0 | 0.0 | 0.00 | 0.68 | 0.68 | 99 | 1013.8 |
| 20260905232903 | 76 | 307 | 0.0 | 0.0 | 0.00 | 0.68 | 0.68 | 99 | 1013.8 |
| 20260905232400 | 76 | 307 | 0.0 | 0.0 | 0.00 | 0.68 | 0.68 | 99 | 1013.5 |
| 20260905231855 | 76 | 307 | 0.0 | 0.0 | 0.00 | 0.68 | 0.68 | 99 | 1013.4 |
| 20260905231350 | 76 | 307 | 0.0 | 0.0 | 0.00 | 0.68 | 0.68 | 99 | 1013.7 |
| 20260905230847 | 76 | 307 | 0.0 | 0.0 | 0.00 | 0.68 | 0.68 | 99 | 1013.6 |
| 20260905230344 | 76 | 307 | 0.0 | 0.0 | 0.00 | 0.68 | 0.68 | 99 | 1013.3 |
| 20260905225844 | 76 | 307 | 0.0 | 0.0 | 0.00 | 0.68 | 0.68 | 99 | 1013.5 |
| 20260905225339 | 76 | 307 | 0.0 | 0.0 | 0.00 | 0.68 | 0.68 | 99 | 1013.3 |
| 20260905224834 | 76 | 307 | 0.0 | 0.0 | 0.00 | 0.68 | 0.68 | 99 | 1013.3 |
| 20260905224329 | 76 | 307 | 0.0 | 0.0 | 0.00 | 0.68 | 0.68 | 99 | 1013.5 |
| 20260905223824 | 76 | 307 | 0.0 | 0.0 | 0.00 | 0.68 | 0.68 | 99 | 1013.5 |
| 20260905223322 | 76 | 307 | 0.0 | 0.0 | 0.00 | 0.68 | 0.68 | 99 | 1013.5 |
| 20260905222817 | 76 | 307 | 0.0 | 0.0 | 0.00 | 0.68 | 0.68 | 99 | 1013.3 |
| 20260905222315 | 75 | 307 | 0.0 | 0.0 | 0.00 | 0.68 | 0.68 | 99 | 1013.5 |
| 20260905221812 | 76 | 307 | 0.0 | 0.0 | 0.00 | 0.68 | 0.68 | 99 | 1013.7 |
| 20260905221309 | 76 | 307 | 0.0 | 0.0 | 0.00 | 0.68 | 0.68 | 99 | 1013.6 |
| 20260905220804 | 76 | 307 | 0.0 | 0.0 | 0.00 | 0.68 | 0.68 | 99 | 1013.6 |
| 20260905220300 | 76 | 307 | 0.0 | 0.0 | 0.00 | 0.68 | 0.68 | 99 | 1013.7 |
| 20260905215759 | 75 | 307 | 0.0 | 0.0 | 0.00 | 0.68 | 0.68 | 99 | 1013.8 |
| 20260905215255 | 75 | 307 | 0.0 | 0.0 | 0.00 | 0.68 | 0.68 | 99 | 1013.8 |
| 20260905214750 | 75 | 307 | 0.0 | 0.0 | 0.00 | 0.68 | 0.68 | 99 | 1013.8 |
| 20260905214246 | 75 | 307 | 0.0 | 0.0 | 0.00 | 0.68 | 0.68 | 99 | 1013.7 |
| 20260905213741 | 75 | 307 | 0.0 | 0.0 | 0.00 | 0.68 | 0.68 | 99 | 1013.8 |
| 20260905213237 | 75 | 307 | 0.0 | 0.0 | 0.00 | 0.68 | 0.68 | 99 | 1013.6 |
| 20260905212732 | 75 | 307 | 0.0 | 0.0 | 0.00 | 0.68 | 0.68 | 99 | 1013.8 |
| 20260905212232 | 75 | 307 | 0.0 | 0.0 | 0.00 | 0.68 | 0.68 | 99 | 1013.7 |
| 20260905211731 | 74 | 307 | 0.0 | 0.0 | 0.00 | 0.68 | 0.68 | 99 | 1013.7 |
| 20260905211226 | 73 | 307 | 0.0 | 0.0 | 0.00 | 0.68 | 0.68 | 99 | 1013.8 |
| 20260905210723 | 73 | 307 | 0.0 | 0.0 | 0.00 | 0.68 | 0.68 | 99 | 1014.1 |
| 20260905210223 | 72 | 307 | 0.0 | 0.0 | 0.00 | 0.68 | 0.68 | 99 | 1014.4 |
| 20260905205722 | 72 | 307 | 0.0 | 0.0 | 0.00 | 0.68 | 0.68 | 99 | 1014.5 |
| 20260905205217 | 72 | 307 | 0.0 | 0.0 | 0.00 | 0.68 | 0.68 | 99 | 1014.3 |
| 20260905204716 | 72 | 307 | 0.0 | 0.0 | 0.00 | 0.68 | 0.68 | 99 | 1014.5 |
| 20260905204212 | 73 | 307 | 0.0 | 0.0 | 0.00 | 0.68 | 0.68 | 99 | 1014.3 |
| 20260905203706 | 73 | 307 | 0.0 | 0.0 | 0.00 | 0.68 | 0.68 | 99 | 1014.6 |
| 20260905203202 | 73 | 307 | 0.0 | 0.0 | 0.00 | 0.68 | 0.68 | 99 | 1014.4 |
| 20260905202657 | 73 | 307 | 0.0 | 0.0 | 0.00 | 0.68 | 0.68 | 99 | 1014.8 |
| 20260905202152 | 72 | 307 | 0.0 | 0.0 | 0.00 | 0.68 | 0.68 | 99 | 1015.0 |
| 20260905201648 | 72 | 307 | 0.0 | 0.0 | 0.00 | 0.68 | 0.68 | 99 | 1015.2 |
| 20260905201147 | 72 | 307 | 0.0 | 0.0 | 0.00 | 0.68 | 0.68 | 99 | 1015.0 |
| 20260905200643 | 72 | 307 | 0.0 | 0.0 | 0.00 | 0.68 | 0.68 | 99 | 1015.3 |
| 20260905200138 | 72 | 307 | 0.0 | 0.0 | 0.00 | 0.68 | 0.68 | 99 | 1015.2 |
| 20260905195636 | 72 | 307 | 0.0 | 0.0 | 0.00 | 0.68 | 0.68 | 99 | 1014.9 |
| 20260905195131 | 72 | 307 | 0.0 | 0.0 | 0.00 | 0.68 | 0.68 | 99 | 1015.0 |
| 20260905194626 | 72 | 307 | 0.0 | 0.0 | 0.00 | 0.68 | 0.68 | 99 | 1014.8 |
| 20260905194126 | 73 | 307 | 0.0 | 0.0 | 0.00 | 0.68 | 0.68 | 99 | 1014.9 |
| 20260905193621 | 73 | 307 | 0.0 | 0.0 | 0.00 | 0.68 | 0.68 | 99 | 1014.9 |
| 20260905193115 | 73 | 307 | 0.0 | 0.0 | 0.00 | 0.68 | 0.68 | 99 | 1014.9 |
| 20260905192611 | 73 | 307 | 0.0 | 0.0 | 0.00 | 0.68 | 0.68 | 99 | 1014.7 |
| 20260905192108 | 73 | 307 | 0.0 | 0.0 | 0.00 | 0.68 | 0.68 | 99 | 1015.0 |
| 20260905191606 | 73 | 307 | 0.0 | 0.0 | 0.05 | 0.68 | 0.68 | 99 | 1015.4 |
| 20260905191105 | 72 | 307 | 0.0 | 0.0 | 0.05 | 0.68 | 0.68 | 99 | 1015.0 |
| 20260905190603 | 72 | 307 | 0.0 | 0.0 | 0.07 | 0.67 | 0.67 | 99 | 1015.2 |
| 20260905185601 | 73 | 307 | 0.0 | 0.0 | 0.50 | 0.67 | 0.67 | 99 | 1015.7 |
| 20260905185056 | 73 | 307 | 0.0 | 0.0 | 1.75 | 0.64 | 0.64 | 97 | 1016.2 |
| 20260905184551 | 74 | 307 | 0.0 | 0.0 | 2.34 | 0.58 | 0.58 | 96 | 1016.4 |
| 20260905184050 | 75 | 307 | 0.0 | 0.0 | 2.03 | 0.37 | 0.37 | 95 | 1017.4 |
| 20260905183549 | 77 | 307 | 0.0 | 0.0 | 0.83 | 0.15 | 0.15 | 92 | 1017.5 |
| 20260905183045 | 80 | 307 | 0.0 | 0.0 | 0.12 | 0.02 | 0.02 | 87 | 1016.8 |
| 20260905182545 | 82 | 307 | 0.0 | 0.0 | 0.07 | 0.01 | 0.01 | 82 | 1016.9 |
| 20260905182045 | 84 | 306 | 0.0 | 0.0 | 0.00 | 0.00 | 0.00 | 82 | 1016.4 |
| 20260905181544 | 86 | 306 | 0.0 | 0.0 | 0.00 | 0.00 | 0.00 | 80 | 1015.8 |
| 20260905181039 | 87 | 306 | 0.0 | 0.0 | 0.00 | 0.00 | 0.00 | 83 | 1014.8 |
| 20260905180533 | 88 | 307 | 0.0 | 0.0 | 0.00 | 0.00 | 0.00 | 83 | 1015.0 |
| 20260905180029 | 88 | 306 | 0.0 | 0.0 | 0.00 | 0.00 | 0.00 | 81 | 1014.8 |
| 20260905175527 | 90 | 306 | 0.0 | 0.0 | 0.00 | 0.00 | 0.00 | 79 | 1015.2 |
| 20260905175024 | 90 | 306 | 0.0 | 0.0 | 0.00 | 0.00 | 0.00 | 78 | 1014.6 |
| 20260905174519 | 91 | 306 | 0.0 | 0.0 | 0.00 | 0.00 | 0.00 | 76 | 1014.6 |
| 20260905174014 | 91 | 306 | 0.0 | 0.0 | 0.00 | 0.00 | 0.00 | 75 | 1014.7 |
| 20260905173511 | 91 | 306 | 0.0 | 0.0 | 0.00 | 0.00 | 0.00 | 77 | 1014.8 |
| 20260905173006 | 90 | 306 | 0.0 | 0.0 | 0.00 | 0.00 | 0.00 | 77 | 1015.2 |
| 20260905172504 | 90 | 306 | 0.0 | 0.0 | 0.00 | 0.00 | 0.00 | 75 | 1015.0 |
| 20260905172000 | 89 | 306 | 0.0 | 0.0 | 0.00 | 0.00 | 0.00 | 74 | 1015.1 |
| 20260905171456 | 89 | 306 | 0.0 | 0.0 | 0.00 | 0.00 | 0.00 | 76 | 1015.3 |
| 20260905170952 | 89 | 306 | 0.0 | 0.0 | 0.00 | 0.00 | 0.00 | 80 | 1015.2 |
| 20260905170448 | 88 | 306 | 0.0 | 0.0 | 0.00 | 0.00 | 0.00 | 79 | 1015.6 |
| 20260905165947 | 88 | 306 | 0.0 | 0.0 | 0.00 | 0.00 | 0.00 | 77 | 1015.5 |
| 20260905165442 | 88 | 306 | 0.0 | 0.0 | 0.00 | 0.00 | 0.00 | 78 | 1015.7 |
| 20260905164938 | 88 | 306 | 0.0 | 0.0 | 0.00 | 0.00 | 0.00 | 81 | 1015.6 |
| 20260905164432 | 87 | 306 | 0.0 | 0.0 | 0.00 | 0.00 | 0.00 | 78 | 1016.0 |
| 20260905163927 | 87 | 306 | 0.0 | 0.0 | 0.00 | 0.00 | 0.00 | 82 | 1016.1 |
| 20260905163424 | 87 | 306 | 0.0 | 0.0 | 0.00 | 0.00 | 0.00 | 83 | 1016.2 |
| 20260905162919 | 87 | 306 | 0.0 | 0.0 | 0.00 | 0.00 | 0.00 | 83 | 1015.9 |
| 20260905162414 | 87 | 306 | 0.0 | 0.0 | 0.00 | 0.00 | 0.00 | 81 | 1016.1 |
| 20260905161909 | 87 | 306 | 0.0 | 0.0 | 0.00 | 0.00 | 0.00 | 83 | 1016.2 |
| 20260905161408 | 87 | 306 | 0.0 | 0.0 | 0.00 | 0.00 | 0.00 | 82 | 1015.9 |
| 20260905160906 | 87 | 306 | 0.0 | 0.0 | 0.00 | 0.00 | 0.00 | 81 | 1016.1 |
| 20260905160400 | 88 | 306 | 0.0 | 0.0 | 0.00 | 0.00 | 0.00 | 81 | 1016.0 |
| 20260905155855 | 88 | 306 | 0.0 | 0.0 | 0.00 | 0.00 | 0.00 | 81 | 1016.1 |
| 20260905155349 | 88 | 306 | 0.0 | 0.0 | 0.00 | 0.00 | 0.00 | 80 | 1016.0 |
| 20260905154848 | 87 | 306 | 0.0 | 0.0 | 0.00 | 0.00 | 0.00 | 80 | 1016.0 |
| 20260905154344 | 86 | 306 | 0.0 | 0.0 | 0.00 | 0.00 | 0.00 | 83 | 1016.1 |
| 20260905153839 | 85 | 306 | 0.0 | 0.0 | 0.00 | 0.00 | 0.00 | 84 | 1016.1 |
| 20260905153336 | 85 | 306 | 0.0 | 0.0 | 0.00 | 0.00 | 0.00 | 86 | 1016.1 |
| 20260905152835 | 84 | 306 | 0.0 | 0.0 | 0.00 | 0.00 | 0.00 | 87 | 1016.2 |
| 20260905152334 | 83 | 306 | 0.0 | 0.0 | 0.00 | 0.00 | 0.00 | 89 | 1016.2 |
| 20260905151829 | 81 | 306 | 0.0 | 0.0 | 0.00 | 0.00 | 0.00 | 90 | 1016.6 |
| 20260905151325 | 81 | 306 | 0.0 | 0.0 | 0.00 | 0.00 | 0.00 | 93 | 1016.4 |
| 20260905150825 | 80 | 307 | 0.0 | 0.0 | 0.00 | 0.00 | 0.00 | 93 | 1016.6 |
| 20260905150320 | 80 | 307 | 0.0 | 0.0 | 0.00 | 0.00 | 0.00 | 93 | 1016.4 |
| 20260905145817 | 80 | 307 | 0.0 | 0.0 | 0.00 | 0.00 | 0.00 | 93 | 1016.5 |
| 20260905145316 | 80 | 307 | 0.0 | 0.0 | 0.00 | 0.00 | 0.00 | 93 | 1016.4 |
| 20260905144815 | 80 | 307 | 0.0 | 0.0 | 0.00 | 0.00 | 0.00 | 93 | 1016.5 |
| 20260905144311 | 80 | 307 | 0.0 | 0.0 | 0.00 | 0.00 | 0.00 | 93 | 1016.4 |
| 20260905143810 | 80 | 307 | 0.0 | 0.0 | 0.00 | 0.00 | 0.00 | 93 | 1016.2 |
| 20260905143304 | 80 | 307 | 0.0 | 0.0 | 0.00 | 0.00 | 0.00 | 92 | 1016.3 |
| 20260905142803 | 80 | 306 | 0.0 | 0.0 | 0.00 | 0.00 | 0.00 | 91 | 1016.5 |
| 20260905142257 | 80 | 306 | 0.0 | 0.0 | 0.00 | 0.00 | 0.00 | 94 | 1016.6 |
| 20260905141754 | 80 | 307 | 0.0 | 0.0 | 0.00 | 0.00 | 0.00 | 96 | 1016.3 |
| 20260905141249 | 80 | 307 | 0.0 | 0.0 | 0.00 | 0.00 | 0.00 | 96 | 1016.4 |
| 20260905140744 | 79 | 307 | 0.0 | 0.0 | 0.00 | 0.00 | 0.00 | 96 | 1016.5 |
| 20260905140239 | 79 | 307 | 0.0 | 0.0 | 0.00 | 0.00 | 0.00 | 97 | 1016.5 |
| 20260905135738 | 78 | 307 | 0.0 | 0.0 | 0.00 | 0.00 | 0.00 | 98 | 1016.7 |
| 20260905135234 | 78 | 307 | 0.0 | 0.0 | 0.00 | 0.00 | 0.00 | 99 | 1016.4 |
| 20260905134733 | 78 | 307 | 0.0 | 0.0 | 0.00 | 0.00 | 0.00 | 99 | 1016.6 |
| 20260905134233 | 78 | 307 | 0.0 | 0.0 | 0.00 | 0.00 | 0.00 | 99 | 1016.6 |
| 20260905133728 | 78 | 307 | 0.0 | 0.0 | 0.00 | 0.00 | 0.00 | 99 | 1016.7 |
| 20260905133223 | 78 | 307 | 0.0 | 0.0 | 0.00 | 0.00 | 0.00 | 99 | 1016.8 |
| 20260905132722 | 78 | 307 | 0.0 | 0.0 | 0.00 | 0.00 | 0.00 | 99 | 1016.8 |
| 20260905132218 | 77 | 307 | 0.0 | 0.0 | 0.00 | 0.00 | 0.00 | 99 | 1016.6 |
| 20260905131712 | 77 | 307 | 0.0 | 0.0 | 0.00 | 0.00 | 0.00 | 99 | 1016.9 |
| 20260905131208 | 77 | 307 | 0.0 | 0.0 | 0.00 | 0.00 | 0.00 | 99 | 1016.8 |
| 20260905130702 | 77 | 307 | 0.0 | 0.0 | 0.00 | 0.00 | 0.00 | 99 | 1016.7 |
| 20260905130201 | 77 | 307 | 0.0 | 0.0 | 0.00 | 0.00 | 0.00 | 99 | 1016.6 |
| 20260905125656 | 77 | 307 | 0.0 | 0.0 | 0.00 | 0.00 | 0.00 | 99 | 1016.6 |
| 20260905125152 | 76 | 307 | 0.0 | 0.0 | 0.00 | 0.00 | 0.00 | 99 | 1016.8 |
| 20260905124648 | 76 | 307 | 0.0 | 0.0 | 0.00 | 0.00 | 0.00 | 99 | 1017.0 |
| 20260905124144 | 76 | 307 | 0.0 | 0.0 | 0.00 | 0.00 | 0.00 | 99 | 1017.0 |
| 20260905123638 | 76 | 307 | 0.0 | 0.0 | 0.00 | 0.00 | 0.00 | 99 | 1016.9 |
| 20260905123136 | 76 | 307 | 0.0 | 0.0 | 0.00 | 0.00 | 0.00 | 99 | 1016.9 |
| 20260905122635 | 75 | 307 | 0.0 | 0.0 | 0.00 | 0.00 | 0.00 | 99 | 1016.7 |
| 20260905122131 | 75 | 307 | 0.0 | 0.0 | 0.00 | 0.00 | 0.00 | 99 | 1016.8 |
| 20260905121625 | 75 | 307 | 0.0 | 0.0 | 0.00 | 0.00 | 0.00 | 99 | 1016.6 |
| 20260905121120 | 75 | 307 | 0.0 | 0.0 | 0.00 | 0.00 | 0.00 | 99 | 1016.7 |
| 20260905120619 | 75 | 307 | 0.0 | 0.0 | 0.00 | 0.00 | 0.00 | 99 | 1016.4 |
| 20260905120115 | 75 | 306 | 0.0 | 0.0 | 0.00 | 0.00 | 0.00 | 99 | 1016.6 |
| 20260905115614 | 75 | 306 | 0.0 | 0.0 | 0.00 | 0.00 | 0.00 | 99 | 1016.3 |
| 20260905115109 | 75 | 306 | 0.0 | 0.0 | 0.00 | 0.00 | 0.00 | 99 | 1016.4 |
| 20260905114608 | 75 | 306 | 0.0 | 0.0 | 0.00 | 0.00 | 0.00 | 99 | 1016.4 |
| 20260905114107 | 75 | 306 | 0.0 | 0.0 | 0.00 | 0.00 | 0.00 | 99 | 1016.0 |
| 20260905113602 | 75 | 306 | 0.0 | 0.0 | 0.00 | 0.00 | 0.00 | 99 | 1016.2 |
| 20260905113057 | 75 | 305 | 0.0 | 0.0 | 0.00 | 0.00 | 0.00 | 99 | 1016.2 |
| 20260905112552 | 75 | 305 | 0.0 | 0.0 | 0.00 | 0.00 | 0.00 | 99 | 1016.0 |
| 20260905112048 | 75 | 305 | 0.0 | 0.0 | 0.00 | 0.00 | 0.00 | 99 | 1016.0 |
| 20260905111543 | 75 | 305 | 0.0 | 0.0 | 0.00 | 0.00 | 0.00 | 99 | 1016.0 |
| 20260905111042 | 75 | 305 | 0.0 | 0.0 | 0.00 | 0.00 | 0.00 | 99 | 1015.9 |
| 20260905110541 | 75 | 305 | 0.0 | 0.0 | 0.00 | 0.00 | 0.00 | 99 | 1015.8 |
| 20260905110037 | 75 | 305 | 0.0 | 0.0 | 0.00 | 0.00 | 0.00 | 99 | 1015.8 |
| 20260905105536 | 75 | 305 | 0.0 | 0.0 | 0.00 | 0.00 | 0.00 | 99 | 1015.7 |